Time;durP1;ratioP1;P1;durP2;ratioP2;P2;SDS_P1;SDS_P2;PMS_P1;PMS_P2;Temp;Humidity;BMP_temperature;BMP_pressure;BME280_temperature;BME280_humidity;BME280_pressure;Samples;Min_cycle;Max_cycle;Signal;HPM_P1;HPM_P2
2023/11/30 00:01:25;;;;;;;113.60;65.70;;;;;;;-1.53;84.68;99131.95;129174;1283;115156;-61
2023/11/30 00:04:27;;;;;;;71.00;43.20;;;;;;;-1.48;84.89;99133.45;129379;1265;115449;-61
2023/11/30 00:07:29;;;;;;;49.10;28.80;;;;;;;-1.45;84.78;99130.92;129447;1267;114791;-62
2023/11/30 00:10:31;;;;;;;45.60;20.80;;;;;;;-1.42;84.75;99129.10;129230;1281;116263;-60
2023/11/30 00:13:36;;;;;;;33.70;16.80;;;;;;;-1.38;84.90;99130.60;129048;1283;114715;-62
2023/11/30 00:16:38;;;;;;;35.10;17.10;;;;;;;-1.35;84.68;99132.84;129311;1264;114743;-63
2023/11/30 00:19:40;;;;;;;31.60;16.10;;;;;;;-1.33;84.56;99135.27;129549;1283;114803;-61
2023/11/30 00:22:42;;;;;;;26.20;15.30;;;;;;;-1.32;84.51;99134.70;129252;1283;115232;-61
2023/11/30 00:25:45;;;;;;;30.10;15.30;;;;;;;-1.30;84.96;99131.50;129502;1283;115193;-61
2023/11/30 00:28:47;;;;;;;34.60;16.40;;;;;;;-1.27;84.57;99134.95;129327;1264;115080;-61
2023/11/30 00:31:49;;;;;;;31.40;16.20;;;;;;;-1.25;85.02;99129.83;129492;1264;115964;-62
2023/11/30 00:34:51;;;;;;;30.80;16.60;;;;;;;-1.22;84.91;99130.63;129519;1260;114793;-60
2023/11/30 00:37:53;;;;;;;28.80;15.70;;;;;;;-1.18;85.24;99133.20;129505;1260;115439;-60
2023/11/30 00:40:55;;;;;;;26.80;14.30;;;;;;;-1.16;84.99;99136.64;129367;1283;128420;-60
2023/11/30 00:43:57;;;;;;;26.80;14.90;;;;;;;-1.15;85.11;99136.81;129381;1283;115098;-61
2023/11/30 00:47:00;;;;;;;28.20;15.60;;;;;;;-1.13;84.94;99137.45;129427;1273;114892;-60
2023/11/30 00:50:02;;;;;;;31.30;16.50;;;;;;;-1.11;84.79;99134.80;129413;1260;115048;-60
2023/11/30 00:53:04;;;;;;;27.30;15.90;;;;;;;-1.09;85.05;99138.43;129378;1265;114807;-61
2023/11/30 00:56:07;;;;;;;30.00;16.90;;;;;;;-1.05;85.00;99141.16;129368;1262;114799;-63
2023/11/30 00:59:11;;;;;;;;;;;;;;;-1.02;85.31;99142.85;129021;1284;126555;-61
2023/11/30 01:02:13;;;;;;;29.30;15.00;;;;;;;-0.99;85.32;99146.30;129377;1284;114869;-61
2023/11/30 01:05:18;;;;;;;30.20;16.50;;;;;;;-0.97;85.07;99149.05;129598;1267;114730;-61
2023/11/30 01:08:19;;;;;;;29.30;15.70;;;;;;;-0.95;85.22;99150.05;129482;1284;114756;-61
2023/11/30 01:11:21;;;;;;;30.10;16.40;;;;;;;-0.91;85.18;99155.23;129272;1264;115418;-61
2023/11/30 01:14:26;;;;;;;31.00;16.40;;;;;;;-0.89;85.14;99150.63;126488;1264;3557812;-61
2023/11/30 01:17:29;;;;;;;30.80;16.30;;;;;;;-0.87;85.45;99150.07;129225;1284;128377;-61
2023/11/30 01:20:32;;;;;;;26.60;15.30;;;;;;;-0.86;85.31;99144.43;129299;1283;114742;-60
2023/11/30 01:23:34;;;;;;;25.40;15.50;;;;;;;-0.83;85.22;99146.48;129509;1263;114737;-62
2023/11/30 01:26:36;;;;;;;26.00;15.60;;;;;;;-0.80;85.30;99147.61;129378;1283;114771;-60
2023/11/30 01:29:38;;;;;;;27.20;16.10;;;;;;;-0.77;85.34;99147.05;129273;1264;114761;-62
2023/11/30 01:32:40;;;;;;;25.80;16.40;;;;;;;-0.74;85.44;99150.13;129467;1283;114739;-60
2023/11/30 01:35:43;;;;;;;31.50;16.50;;;;;;;-0.70;85.59;99150.41;129373;1263;114739;-61
2023/11/30 01:38:45;;;;;;;26.60;15.90;;;;;;;-0.68;85.57;99153.52;129115;1265;127676;-61
2023/11/30 01:41:47;;;;;;;27.40;16.30;;;;;;;-0.66;85.60;99150.31;129398;1263;114799;-59
2023/11/30 01:44:49;;;;;;;28.80;16.30;;;;;;;-0.64;85.52;99150.61;129383;1280;115197;-60
2023/11/30 01:47:52;;;;;;;32.30;17.30;;;;;;;-0.62;85.37;99151.98;129062;1283;114796;-60
2023/11/30 01:50:55;;;;;;;33.70;17.10;;;;;;;-0.60;85.67;99144.58;129319;1263;114735;-60
2023/11/30 01:53:59;;;;;;;28.80;16.90;;;;;;;-0.58;85.56;99143.84;129278;1283;114728;-60
2023/11/30 01:57:02;;;;;;;30.00;17.50;;;;;;;-0.57;85.49;99144.31;129220;1262;114711;-62
2023/11/30 02:00:07;;;;;;;29.00;17.50;;;;;;;-0.55;85.52;99140.95;129470;1260;115258;-60
2023/11/30 02:03:09;;;;;;;26.40;16.60;;;;;;;-0.53;85.72;99137.75;129246;1264;115144;-61
2023/11/30 02:06:16;;;;;;;29.40;17.00;;;;;;;-0.52;85.65;99140.19;129161;1266;114930;-60
2023/11/30 02:09:18;;;;;;;29.50;16.20;;;;;;;-0.52;85.60;99138.95;129125;1283;114841;-60
2023/11/30 02:12:20;;;;;;;31.50;18.10;;;;;;;-0.50;85.69;99139.44;129309;1283;114805;-60
2023/11/30 02:15:23;;;;;;;27.20;16.10;;;;;;;-0.49;85.84;99141.52;129373;1263;115200;-60
2023/11/30 02:18:25;;;;;;;29.70;16.60;;;;;;;-0.48;85.76;99143.23;129425;1283;116459;-59
2023/11/30 02:21:27;;;;;;;29.20;17.70;;;;;;;-0.46;85.94;99145.11;129355;1264;114831;-59
2023/11/30 02:24:29;;;;;;;30.30;16.80;;;;;;;-0.43;85.87;99147.51;129260;1284;114720;-61
2023/11/30 02:27:31;;;;;;;29.30;16.90;;;;;;;-0.42;85.63;99139.61;129183;1262;114732;-62
2023/11/30 02:30:36;;;;;;;28.50;17.30;;;;;;;-0.42;85.79;99140.98;129338;1284;114716;-60
2023/11/30 02:33:38;;;;;;;21.50;12.50;;;;;;;-0.41;85.84;99142.55;129333;1264;128828;-60
2023/11/30 02:36:40;;;;;;;28.80;16.80;;;;;;;-0.39;85.94;99139.69;129354;1265;114896;-59
2023/11/30 02:39:42;;;;;;;30.50;16.10;;;;;;;-0.37;85.87;99138.42;129499;1261;114716;-62
2023/11/30 02:42:47;;;;;;;19.00;11.60;;;;;;;-0.36;86.05;99138.93;129122;1264;114925;-60
2023/11/30 02:45:49;;;;;;;29.90;17.60;;;;;;;-0.35;86.02;99138.20;129368;1263;115146;-60
2023/11/30 02:48:51;;;;;;;29.40;17.10;;;;;;;-0.35;86.21;99142.05;129310;1277;114643;-62
2023/11/30 02:51:53;;;;;;;28.90;17.20;;;;;;;-0.35;85.96;99144.16;129120;1284;114848;-60
2023/11/30 02:54:55;;;;;;;29.10;18.50;;;;;;;-0.34;85.98;99147.14;129298;1284;114906;-60
2023/11/30 02:57:57;;;;;;;33.10;18.80;;;;;;;-0.35;85.92;99156.29;129262;1261;114755;-60
2023/11/30 03:01:02;;;;;;;30.40;18.10;;;;;;;-0.35;86.08;99154.88;128918;1284;115284;-60
2023/11/30 03:04:04;;;;;;;30.30;18.20;;;;;;;-0.35;85.99;99154.00;129159;1262;114903;-60
2023/11/30 03:07:06;;;;;;;29.10;18.50;;;;;;;-0.35;86.09;99147.68;129258;1262;114701;-60
2023/11/30 03:10:08;;;;;;;30.30;17.90;;;;;;;-0.35;86.10;99149.42;129291;1284;114691;-61
2023/11/30 03:13:10;;;;;;;26.40;17.40;;;;;;;-0.35;86.05;99145.41;129376;1284;114810;-62
2023/11/30 03:16:13;;;;;;;28.20;17.60;;;;;;;-0.37;85.89;99144.04;129077;1262;128523;-60
2023/11/30 03:19:15;;;;;;;30.70;18.20;;;;;;;-0.38;86.02;99144.23;129193;1264;114812;-61
2023/11/30 03:22:17;;;;;;;29.30;18.30;;;;;;;-0.38;85.94;99142.48;129316;1264;114960;-60
2023/11/30 03:25:19;;;;;;;28.50;18.70;;;;;;;-0.40;86.09;99143.75;129172;1268;114896;-60
2023/11/30 03:28:21;;;;;;;31.60;17.60;;;;;;;-0.40;86.14;99142.54;129287;1283;115118;-60
2023/11/30 03:31:23;;;;;;;28.00;18.50;;;;;;;-0.41;86.25;99140.44;129343;1280;114788;-60
2023/11/30 03:34:25;;;;;;;31.20;18.40;;;;;;;-0.41;86.20;99140.96;129287;1280;114751;-60
2023/11/30 03:37:27;;;;;;;27.80;17.70;;;;;;;-0.40;86.31;99143.95;129258;1283;114749;-61
2023/11/30 03:40:29;;;;;;;25.50;16.40;;;;;;;-0.41;86.26;99139.73;129388;1262;114739;-61
2023/11/30 03:43:31;;;;;;;27.40;17.20;;;;;;;-0.40;86.33;99143.42;129058;1271;114709;-60
2023/11/30 03:46:33;;;;;;;27.40;17.30;;;;;;;-0.41;86.39;99142.55;129413;1261;115320;-60
2023/11/30 03:49:35;;;;;;;31.80;17.40;;;;;;;-0.40;86.44;99139.20;129397;1265;115160;-59
2023/11/30 03:52:37;;;;;;;27.90;18.30;;;;;;;-0.40;86.44;99140.95;129054;1264;114845;-60
2023/11/30 03:55:39;;;;;;;30.60;18.60;;;;;;;-0.40;86.77;99139.38;129188;1264;115334;-60
2023/11/30 03:58:41;;;;;;;27.80;18.60;;;;;;;-0.40;86.79;99142.89;129362;1284;114793;-60
2023/11/30 04:01:43;;;;;;;32.90;19.40;;;;;;;-0.40;86.87;99147.61;129244;1262;128261;-60
2023/11/30 04:04:45;;;;;;;35.30;20.50;;;;;;;-0.39;86.84;99145.13;129157;1265;114733;-60
2023/11/30 04:07:47;;;;;;;33.40;21.60;;;;;;;-0.39;86.88;99145.48;129310;1261;114970;-60
2023/11/30 04:10:50;;;;;;;35.00;19.90;;;;;;;-0.39;86.92;99146.73;129374;1261;114999;-60
2023/11/30 04:13:52;;;;;;;26.70;17.90;;;;;;;-0.39;86.83;99143.73;129180;1264;115232;-60
2023/11/30 04:16:54;;;;;;;30.50;19.30;;;;;;;-0.39;87.10;99142.16;129253;1264;114729;-60
2023/11/30 04:19:56;;;;;;;28.80;17.80;;;;;;;-0.39;87.35;99141.45;129005;1269;114819;-61
2023/11/30 04:23:02;;;;;;;32.20;20.00;;;;;;;-0.37;87.16;99137.90;129263;1284;114778;-61
2023/11/30 04:26:05;;;;;;;34.00;20.10;;;;;;;-0.36;87.28;99137.36;129296;1284;115347;-61
2023/11/30 04:29:07;;;;;;;36.00;22.30;;;;;;;-0.35;87.41;99137.70;129215;1261;114895;-60
2023/11/30 04:32:09;;;;;;;38.00;21.20;;;;;;;-0.35;87.46;99136.97;129302;1284;114805;-60
2023/11/30 04:35:11;;;;;;;31.90;19.70;;;;;;;-0.34;87.58;99139.05;129313;1280;114734;-60
2023/11/30 04:38:13;;;;;;;30.80;19.50;;;;;;;-0.33;87.57;99141.84;129140;1284;114800;-61
2023/11/30 04:41:16;;;;;;;32.50;20.00;;;;;;;-0.34;87.53;99136.42;129377;1284;114750;-60
2023/11/30 04:44:20;;;;;;;32.00;20.10;;;;;;;-0.34;87.64;99129.23;129059;1284;128474;-60
2023/11/30 04:47:22;;;;;;;27.40;15.50;;;;;;;-0.36;87.37;99126.64;129356;1284;114767;-60
2023/11/30 04:50:24;;;;;;;32.00;20.20;;;;;;;-0.40;87.40;99124.98;129281;1265;115197;-61
2023/11/30 04:53:26;;;;;;;31.40;19.70;;;;;;;-0.44;87.07;99127.89;129393;1280;115191;-61
2023/11/30 04:56:28;;;;;;;31.20;20.80;;;;;;;-0.50;87.17;99128.20;129037;1270;114931;-60
2023/11/30 04:59:31;;;;;;;33.00;19.40;;;;;;;-0.55;87.08;99125.17;129163;1262;114729;-60
2023/11/30 05:02:36;;;;;;;32.40;20.90;;;;;;;-0.60;87.16;99123.35;129246;1262;115146;-61
2023/11/30 05:05:38;;;;;;;;;;;;;;;-0.65;87.27;99123.63;128929;1267;128677;-62
2023/11/30 05:08:40;;;;;;;33.90;20.90;;;;;;;-0.69;87.24;99123.56;129277;1264;115305;-60
2023/11/30 05:11:42;;;;;;;32.10;20.50;;;;;;;-0.72;87.19;99119.95;129345;1262;114746;-60
2023/11/30 05:14:47;;;;;;;37.00;21.30;;;;;;;-0.75;87.20;99123.02;129157;1263;115401;-60
2023/11/30 05:17:49;;;;;;;34.10;21.60;;;;;;;-0.80;87.28;99120.63;129212;1264;114738;-60
2023/11/30 05:20:51;;;;;;;33.20;21.10;;;;;;;-0.83;87.27;99117.91;129398;1283;114770;-61
2023/11/30 05:23:53;;;;;;;34.00;21.70;;;;;;;-0.86;87.33;99123.92;129150;1283;114874;-60
2023/11/30 05:26:55;;;;;;;33.50;22.70;;;;;;;-0.90;87.16;99125.05;129432;1283;114771;-61
2023/11/30 05:29:57;;;;;;;42.30;25.60;;;;;;;-0.95;86.97;99119.92;129429;1265;115111;-60
2023/11/30 05:33:00;;;;;;;41.20;28.10;;;;;;;-0.99;86.94;99117.39;129415;1283;115298;-60
2023/11/30 05:36:02;;;;;;;40.40;27.30;;;;;;;-1.04;87.25;99123.26;129454;1264;115181;-61
2023/11/30 05:39:06;;;;;;;43.70;27.60;;;;;;;-1.09;86.97;99125.13;129487;1263;115231;-60
2023/11/30 05:42:10;;;;;;;40.30;26.10;;;;;;;-1.13;87.36;99125.58;129303;1265;115155;-61
2023/11/30 05:45:12;;;;;;;40.90;24.50;;;;;;;-1.16;87.08;99128.95;129438;1284;114710;-61
2023/11/30 05:48:14;;;;;;;42.00;25.80;;;;;;;-1.18;87.43;99127.77;129300;1278;114733;-61
2023/11/30 05:51:17;;;;;;;42.30;25.00;;;;;;;-1.20;87.59;99125.17;129254;1278;115401;-61
2023/11/30 05:54:19;;;;;;;35.00;24.00;;;;;;;-1.19;87.53;99126.39;129383;1264;114829;-62
2023/11/30 05:57:21;;;;;;;39.30;24.10;;;;;;;-1.19;87.92;99131.81;129168;1262;114899;-62
2023/11/30 06:00:24;;;;;;;40.20;23.70;;;;;;;-1.18;87.93;99137.05;129322;1264;114799;-61
2023/11/30 06:03:26;;;;;;;35.90;22.70;;;;;;;-1.17;87.98;99135.97;129176;1264;114737;-61
2023/11/30 06:06:28;;;;;;;40.20;24.70;;;;;;;-1.16;87.93;99142.61;129290;1264;114765;-61
2023/11/30 06:09:30;;;;;;;33.40;21.50;;;;;;;-1.14;88.41;99143.98;129269;1279;127557;-60
2023/11/30 06:12:32;;;;;;;35.50;22.60;;;;;;;-1.11;88.20;99150.04;129272;1284;114787;-62
2023/11/30 06:15:34;;;;;;;39.00;23.90;;;;;;;-1.09;88.47;99150.89;129244;1283;114695;-62
2023/11/30 06:18:36;;;;;;;39.90;23.30;;;;;;;-1.06;88.26;99151.52;129081;1265;114864;-61
2023/11/30 06:21:41;;;;;;;37.10;23.10;;;;;;;-1.02;88.23;99155.48;129341;1276;114729;-60
2023/11/30 06:24:43;;;;;;;;;;;;;;;-1.00;88.58;99151.91;129338;1268;114890;-61
2023/11/30 06:27:46;;;;;;;41.20;23.90;;;;;;;-0.98;88.65;99154.67;129200;1283;114752;-61
2023/11/30 06:30:48;;;;;;;46.10;26.30;;;;;;;-0.95;88.36;99155.68;129483;1283;114735;-62
2023/11/30 06:33:50;;;;;;;46.40;25.70;;;;;;;-0.91;88.45;99159.27;129540;1265;115229;-61
2023/11/30 06:36:54;;;;;;;54.40;28.10;;;;;;;-0.88;88.81;99164.98;129344;1262;114769;-61
2023/11/30 06:39:58;;;;;;;55.90;27.90;;;;;;;-0.84;88.89;99162.64;129251;1265;114820;-61
2023/11/30 06:43:01;;;;;;;76.80;33.90;;;;;;;-0.79;89.03;99161.46;129143;1262;115206;-61
2023/11/30 06:46:03;;;;;;;64.80;30.60;;;;;;;-0.73;89.28;99165.55;129250;1262;114753;-61
2023/11/30 06:49:05;;;;;;;64.20;31.20;;;;;;;-0.68;89.17;99166.48;129454;1265;114758;-61
2023/11/30 06:52:07;;;;;;;64.70;31.60;;;;;;;-0.62;89.22;99168.29;129157;1263;115203;-61
2023/11/30 06:55:09;;;;;;;60.90;31.30;;;;;;;-0.56;89.33;99164.63;129459;1265;114791;-61
2023/11/30 06:58:11;;;;;;;64.00;31.40;;;;;;;-0.49;89.26;99165.20;129270;1268;116201;-61
2023/11/30 07:01:13;;;;;;;57.30;30.70;;;;;;;-0.40;89.54;99163.23;129130;1283;115524;-61
2023/11/30 07:04:16;;;;;;;57.40;30.40;;;;;;;-0.29;89.37;99166.84;129170;1284;114831;-61
2023/11/30 07:07:18;;;;;;;53.50;30.00;;;;;;;-0.18;89.47;99162.71;129314;1281;114745;-61
2023/11/30 07:10:21;;;;;;;57.20;30.40;;;;;;;-0.07;89.51;99158.75;129282;1284;114724;-60
2023/11/30 07:13:23;;;;;;;50.20;29.60;;;;;;;0.06;89.65;99157.03;129159;1267;115301;-61
2023/11/30 07:16:25;;;;;;;53.20;29.40;;;;;;;0.19;89.74;99156.20;129312;1283;115204;-61
2023/11/30 07:19:27;;;;;;;51.20;29.00;;;;;;;0.33;89.66;99152.48;129386;1283;114835;-60
2023/11/30 07:22:30;;;;;;;50.10;28.10;;;;;;;0.48;89.27;99155.61;129385;1263;114698;-61
2023/11/30 07:25:32;;;;;;;47.60;28.80;;;;;;;0.62;89.32;99157.15;129250;1265;115024;-61
2023/11/30 07:28:34;;;;;;;48.50;27.90;;;;;;;0.74;89.14;99156.13;129314;1265;114765;-60
2023/11/30 07:31:36;;;;;;;47.30;27.70;;;;;;;0.83;89.20;99156.40;129585;1265;115162;-61
2023/11/30 07:34:38;;;;;;;43.90;28.00;;;;;;;0.93;88.61;99157.36;129333;1283;115397;-61
2023/11/30 07:37:42;;;;;;;53.40;30.90;;;;;;;1.03;88.60;99160.39;129374;1283;115181;-61
2023/11/30 07:40:44;;;;;;;74.60;47.40;;;;;;;1.16;88.72;99161.44;129341;1265;114832;-61
2023/11/30 07:43:46;;;;;;;77.90;47.60;;;;;;;1.31;88.60;99156.42;129378;1283;116392;-61
2023/11/30 07:46:48;;;;;;;78.00;45.30;;;;;;;1.45;88.59;99162.31;129257;1283;116358;-61
2023/11/30 07:49:50;;;;;;;78.80;48.80;;;;;;;1.55;88.47;99166.59;129462;1280;115260;-61
2023/11/30 07:52:52;;;;;;;80.00;47.30;;;;;;;1.67;88.57;99167.81;129341;1283;114758;-62
2023/11/30 07:55:56;;;;;;;68.90;41.40;;;;;;;1.76;88.17;99163.82;129172;1279;115395;-61
2023/11/30 07:58:58;;;;;;;66.40;41.20;;;;;;;1.84;87.99;99169.04;129131;1262;114806;-63
2023/11/30 08:02:00;;;;;;;105.70;56.90;;;;;;;1.91;87.84;99169.88;129298;1265;114736;-59
2023/11/30 08:05:04;;;;;;;106.30;63.60;;;;;;;1.96;87.57;99171.48;129208;1284;114827;-59
2023/11/30 08:08:07;;;;;;;99.80;57.50;;;;;;;1.98;87.10;99166.14;129205;1283;114822;-59
2023/11/30 08:11:09;;;;;;;93.90;53.80;;;;;;;1.99;87.04;99163.98;129268;1275;114739;-59
2023/11/30 08:14:12;;;;;;;100.00;56.30;;;;;;;2.00;87.16;99161.66;129305;1262;114870;-59
2023/11/30 08:17:14;;;;;;;95.50;54.20;;;;;;;2.00;86.67;99159.00;129339;1284;115281;-59
2023/11/30 08:20:16;;;;;;;75.80;43.80;;;;;;;1.98;86.21;99165.45;129324;1264;114725;-59
2023/11/30 08:23:19;;;;;;;78.10;44.60;;;;;;;1.91;86.29;99165.27;129444;1283;114863;-60
2023/11/30 08:26:22;;;;;;;87.60;46.80;;;;;;;1.88;85.89;99164.88;129229;1263;114871;-62
2023/11/30 08:29:24;;;;;;;82.10;50.20;;;;;;;1.83;86.09;99161.48;129216;1262;114782;-61
2023/11/30 08:32:26;;;;;;;80.70;46.30;;;;;;;1.81;86.08;99158.23;129411;1274;114827;-59
2023/11/30 08:35:28;;;;;;;64.40;36.80;;;;;;;1.78;86.23;99171.33;129288;1283;128824;-59
2023/11/30 08:38:32;;;;;;;57.10;34.80;;;;;;;1.80;86.37;99176.40;129375;1277;115187;-59
2023/11/30 08:41:36;;;;;;;62.50;35.90;;;;;;;1.84;86.17;99176.09;129398;1283;114786;-60
2023/11/30 08:44:38;;;;;;;65.40;37.40;;;;;;;1.89;86.40;99176.26;129452;1264;114837;-59
2023/11/30 08:47:42;;;;;;;64.80;37.40;;;;;;;1.99;86.72;99176.83;129401;1280;114767;-62
2023/11/30 08:50:44;;;;;;;58.60;35.30;;;;;;;2.05;86.43;99172.95;129448;1281;114783;-60
2023/11/30 08:53:47;;;;;;;60.00;35.90;;;;;;;2.09;86.42;99175.45;129297;1281;114757;-60
2023/11/30 08:56:49;;;;;;;59.50;34.90;;;;;;;2.13;86.24;99180.44;129591;1265;114802;-62
2023/11/30 08:59:51;;;;;;;64.80;35.00;;;;;;;2.17;86.08;99183.83;129142;1266;114835;-59
2023/11/30 09:02:53;;;;;;;59.50;35.00;;;;;;;2.20;85.98;99183.02;129340;1262;115876;-60
2023/11/30 09:05:55;;;;;;;62.50;34.30;;;;;;;2.23;85.84;99186.44;129416;1283;114772;-59
2023/11/30 09:08:57;;;;;;;53.30;30.90;;;;;;;2.30;86.04;99189.02;129288;1265;114707;-59
2023/11/30 09:11:59;;;;;;;52.60;31.20;;;;;;;2.42;86.11;99187.39;129405;1263;114987;-59
2023/11/30 09:15:01;;;;;;;49.20;30.00;;;;;;;2.53;85.94;99188.61;129463;1265;115121;-60
2023/11/30 09:18:03;;;;;;;49.20;30.00;;;;;;;2.61;85.75;99193.95;128965;1284;115198;-60
2023/11/30 09:21:06;;;;;;;49.40;29.50;;;;;;;2.68;85.49;99188.80;129241;1264;114730;-61
2023/11/30 09:24:08;;;;;;;52.30;30.10;;;;;;;2.73;85.45;99183.83;129194;1267;114730;-59
2023/11/30 09:27:10;;;;;;;47.00;29.60;;;;;;;2.84;85.58;99185.57;129316;1262;114711;-60
2023/11/30 09:30:13;;;;;;;45.70;29.20;;;;;;;2.93;85.30;99180.84;129160;1267;114724;-60
2023/11/30 09:33:15;;;;;;;47.10;30.10;;;;;;;3.06;85.62;99177.17;129142;1268;114802;-59
2023/11/30 09:36:17;;;;;;;42.30;27.00;;;;;;;3.21;85.44;99173.31;129179;1284;114799;-61
2023/11/30 09:39:19;;;;;;;46.60;29.50;;;;;;;3.29;85.19;99170.33;129289;1280;115411;-59
2023/11/30 09:42:24;;;;;;;44.70;28.30;;;;;;;3.37;84.88;99159.12;129219;1284;114744;-60
2023/11/30 09:45:26;;;;;;;44.30;27.60;;;;;;;3.43;84.61;99156.58;129195;1262;114778;-60
2023/11/30 09:48:29;;;;;;;46.40;26.70;;;;;;;3.49;84.35;99150.51;129188;1283;114838;-61
2023/11/30 09:51:31;;;;;;;43.00;26.70;;;;;;;3.56;84.12;99147.41;129291;1275;114738;-65
2023/11/30 09:54:34;;;;;;;42.10;26.10;;;;;;;3.69;83.98;99137.89;129406;1270;127585;-66
2023/11/30 09:57:36;;;;;;;40.10;25.70;;;;;;;3.82;83.92;99135.63;129617;1265;114750;-66
2023/11/30 10:00:38;;;;;;;40.10;25.30;;;;;;;3.89;83.46;99128.80;129505;1265;115384;-64
2023/11/30 10:03:41;;;;;;;40.10;24.30;;;;;;;3.95;83.12;99129.95;129705;1283;114815;-65
2023/11/30 10:06:44;;;;;;;38.80;23.30;;;;;;;4.03;82.79;99126.28;129664;1283;114796;-64
2023/11/30 10:09:46;;;;;;;40.00;23.60;;;;;;;4.05;82.80;99122.34;129512;1274;114831;-65
2023/11/30 10:12:48;;;;;;;38.30;22.70;;;;;;;4.02;82.27;99121.05;129587;1262;114801;-65
2023/11/30 10:15:50;;;;;;;32.60;20.40;;;;;;;3.93;81.82;99115.93;129728;1260;114818;-66
2023/11/30 10:18:53;;;;;;;36.30;19.60;;;;;;;3.80;81.22;99113.98;129592;1263;115249;-66
2023/11/30 10:21:56;;;;;;;28.60;18.30;;;;;;;3.67;81.05;99111.15;129404;1263;114704;-65
2023/11/30 10:24:58;;;;;;;29.30;18.70;;;;;;;3.57;80.77;99109.45;129816;1265;114738;-65
2023/11/30 10:28:01;;;;;;;36.70;18.30;;;;;;;3.52;81.17;99108.58;129690;1277;114747;-66
2023/11/30 10:31:04;;;;;;;30.30;17.90;;;;;;;3.49;80.77;99107.95;129577;1268;114754;-66
2023/11/30 10:34:10;;;;;;;29.30;15.60;;;;;;;3.46;80.14;99107.40;129516;1265;128640;-66
2023/11/30 10:37:18;;;;;;;30.10;18.90;;;;;;;3.41;79.78;99106.16;129728;1265;116333;-65
2023/11/30 10:40:22;;;;;;;29.30;17.70;;;;;;;3.43;80.06;99109.27;129431;1271;114810;-65
2023/11/30 10:43:24;;;;;;;25.10;16.70;;;;;;;3.53;80.52;99112.60;129295;1273;114958;-66
2023/11/30 10:46:27;;;;;;;24.90;17.10;;;;;;;3.62;80.57;99111.17;129665;1265;114893;-65
2023/11/30 10:49:29;;;;;;;31.50;20.00;;;;;;;3.71;80.27;99109.27;129653;1265;114737;-65
2023/11/30 10:52:31;;;;;;;31.60;19.80;;;;;;;3.79;80.28;99112.77;129727;1265;114821;-65
2023/11/30 10:55:33;;;;;;;34.30;19.10;;;;;;;3.93;80.73;99105.51;129427;1268;114740;-65
2023/11/30 10:58:35;;;;;;;29.90;19.00;;;;;;;4.04;80.29;99114.05;129496;1265;114820;-65
2023/11/30 11:01:40;;;;;;;29.40;19.00;;;;;;;4.10;80.02;99113.48;129572;1275;115279;-65
2023/11/30 11:04:42;;;;;;;33.80;19.80;;;;;;;4.14;79.74;99109.39;129680;1265;114725;-64
2023/11/30 11:07:46;;;;;;;33.20;19.60;;;;;;;4.19;79.73;99109.91;129666;1264;114821;-65
2023/11/30 11:10:49;;;;;;;36.50;20.00;;;;;;;4.22;80.05;99108.86;129493;1265;115190;-63
2023/11/30 11:13:51;;;;;;;34.90;21.70;;;;;;;4.29;80.05;99108.94;129466;1269;114752;-66
2023/11/30 11:17:08;;;;;;;37.80;21.60;;;;;;;4.37;80.11;99104.71;129719;1283;114720;-64
2023/11/30 11:20:19;;;;;;;38.90;22.10;;;;;;;4.44;79.71;99109.17;129223;1270;115033;-65
2023/11/30 11:23:21;;;;;;;34.60;21.70;;;;;;;4.49;79.81;99104.38;129393;1284;114736;-64
2023/11/30 11:26:24;;;;;;;32.90;21.00;;;;;;;4.54;79.50;99102.20;129116;1284;114799;-64
2023/11/30 11:29:28;;;;;;;36.90;21.70;;;;;;;4.58;79.39;99102.91;129679;1267;114718;-65
2023/11/30 11:32:31;;;;;;;37.30;21.20;;;;;;;4.60;79.08;99101.96;129662;1265;114770;-65
2023/11/30 11:35:34;;;;;;;35.10;20.80;;;;;;;4.68;79.12;99098.94;129735;1262;115368;-66
2023/11/30 11:38:37;;;;;;;49.50;29.00;;;;;;;4.74;78.56;99095.13;129979;1265;114774;-64
2023/11/30 11:41:39;;;;;;;43.10;24.50;;;;;;;4.78;78.51;99093.89;129444;1274;114873;-64
2023/11/30 11:44:41;;;;;;;37.80;22.90;;;;;;;4.81;78.20;99095.52;129343;1269;114865;-64
2023/11/30 11:47:46;;;;;;;35.70;22.00;;;;;;;4.71;77.52;99089.44;129238;1283;115185;-65
2023/11/30 11:50:58;;;;;;;36.90;21.80;;;;;;;4.60;77.79;99082.52;129225;1276;115172;-65
2023/11/30 11:54:01;;;;;;;37.30;22.40;;;;;;;4.52;77.80;99083.70;129885;1265;114809;-65
2023/11/30 11:57:04;;;;;;;36.20;21.10;;;;;;;4.41;77.33;99079.26;129803;1274;114747;-64
2023/11/30 12:00:13;;;;;;;37.80;22.50;;;;;;;4.31;77.34;99075.44;129721;1281;114664;-64
2023/11/30 12:03:15;;;;;;;40.70;23.20;;;;;;;4.24;77.54;99071.30;128963;1262;115193;-65
2023/11/30 12:06:30;;;;;;;41.30;23.80;;;;;;;4.18;77.48;99066.81;129912;1265;115197;-66
2023/11/30 12:09:32;;;;;;;40.50;25.00;;;;;;;4.10;77.46;99070.15;129636;1283;114783;-66
2023/11/30 12:12:35;;;;;;;42.00;26.30;;;;;;;4.06;77.64;99068.20;129734;1283;114647;-60
2023/11/30 12:15:37;;;;;;;44.00;25.70;;;;;;;4.07;77.84;99063.02;129332;1283;114798;-60
2023/11/30 12:18:39;;;;;;;41.90;23.70;;;;;;;4.08;77.47;99055.25;129156;1274;128998;-61
2023/11/30 12:21:41;;;;;;;40.00;23.40;;;;;;;4.02;77.30;99048.60;129437;1267;114846;-60
2023/11/30 12:24:43;;;;;;;46.10;27.90;;;;;;;3.99;77.48;99045.55;129182;1267;115383;-60
2023/11/30 12:27:46;;;;;;;52.70;27.40;;;;;;;3.90;76.92;99044.19;129344;1282;114707;-60
2023/11/30 12:30:48;;;;;;;48.40;29.20;;;;;;;3.75;76.83;99036.67;129510;1276;114736;-60
2023/11/30 12:33:50;;;;;;;53.40;34.10;;;;;;;3.64;77.00;99032.39;129358;1267;114737;-60
2023/11/30 12:36:52;;;;;;;61.00;35.10;;;;;;;3.54;77.45;99033.15;129356;1268;115129;-60
2023/11/30 12:39:54;;;;;;;51.90;33.10;;;;;;;3.44;77.34;99034.75;129237;1269;128472;-60
2023/11/30 12:42:57;;;;;;;52.30;30.20;;;;;;;3.33;76.96;99033.07;129372;1265;114712;-60
2023/11/30 12:45:59;;;;;;;67.50;35.20;;;;;;;3.17;76.71;99033.55;129396;1265;114742;-60
2023/11/30 12:49:01;;;;;;;57.60;32.30;;;;;;;3.01;77.19;99033.98;129358;1283;115240;-60
2023/11/30 12:52:05;;;;;;;66.20;38.00;;;;;;;2.89;77.09;99032.15;129176;1268;115483;-60
2023/11/30 12:55:08;;;;;;;52.00;31.90;;;;;;;2.78;77.39;99035.39;129380;1283;114732;-60
2023/11/30 12:58:10;;;;;;;70.40;38.60;;;;;;;2.68;77.39;99033.65;129392;1281;114731;-60
2023/11/30 13:01:12;;;;;;;68.80;36.80;;;;;;;2.61;77.54;99036.05;129299;1267;114772;-60
2023/11/30 13:04:16;;;;;;;65.00;36.90;;;;;;;2.56;77.75;99034.97;129207;1270;115285;-60
2023/11/30 13:07:18;;;;;;;58.10;32.30;;;;;;;2.52;78.00;99033.00;129287;1282;114776;-60
2023/11/30 13:10:20;;;;;;;69.00;39.20;;;;;;;2.48;78.30;99034.73;129177;1284;114777;-60
2023/11/30 13:13:35;;;;;;;67.90;36.10;;;;;;;2.46;78.38;99035.35;128901;1284;114900;-60
2023/11/30 13:16:37;;;;;;;65.90;34.70;;;;;;;2.42;78.44;99033.38;126337;1271;3634480;-60
2023/11/30 13:19:40;;;;;;;67.90;34.50;;;;;;;2.38;78.66;99035.30;128944;1289;129304;-59
2023/11/30 13:22:44;;;;;;;66.40;36.10;;;;;;;2.33;78.72;99031.42;129040;1270;115374;-60
2023/11/30 13:25:46;;;;;;;70.50;35.10;;;;;;;2.27;79.12;99029.36;128704;1273;114906;-60
2023/11/30 13:28:48;;;;;;;60.90;33.10;;;;;;;2.19;79.00;99025.57;128934;1287;114938;-60
2023/11/30 13:31:50;;;;;;;63.70;33.70;;;;;;;2.13;79.40;99025.26;128921;1286;114916;-60
2023/11/30 13:34:52;;;;;;;59.00;33.30;;;;;;;2.08;79.43;99032.13;128589;1288;114925;-60
2023/11/30 13:37:57;;;;;;;55.20;33.10;;;;;;;2.04;79.50;99030.15;128932;1277;115122;-60
2023/11/30 13:41:00;;;;;;;69.00;37.30;;;;;;;2.04;80.09;99032.64;129010;1288;115482;-60
2023/11/30 13:44:04;;;;;;;108.70;50.70;;;;;;;2.05;80.04;99031.55;129056;1283;114867;-60
2023/11/30 13:47:08;;;;;;;78.60;42.70;;;;;;;2.07;79.97;99039.20;129083;1283;114797;-60